Time;durP1;ratioP1;P1;durP2;ratioP2;P2;SDS_P1;SDS_P2;PMS_P1;PMS_P2;Temp;Humidity;BMP_temperature;BMP_pressure;BME280_temperature;BME280_humidity;BME280_pressure;Samples;Min_cycle;Max_cycle;Signal;HPM_P1;HPM_P2
2022/07/09 00:00:06;;;;;;;20.77;12.55;;;16.80;99.90;;;;;;4988476;28;20121;-72
2022/07/09 00:02:31;;;;;;;21.33;12.70;;;16.80;99.90;;;;;;4969165;28;20050;-73
2022/07/09 00:04:57;;;;;;;19.73;12.15;;;16.80;99.90;;;;;;4979292;28;20047;-73
2022/07/09 00:07:23;;;;;;;21.80;11.30;;;16.80;99.90;;;;;;4968897;28;20031;-72
2022/07/09 00:09:48;;;;;;;17.77;11.77;;;16.70;99.90;;;;;;4970565;28;20112;-73
2022/07/09 00:12:14;;;;;;;20.52;12.10;;;16.70;99.90;;;;;;4970459;28;20504;-73
2022/07/09 00:14:39;;;;;;;24.65;12.70;;;16.70;99.90;;;;;;4987394;28;20046;-73
2022/07/09 00:17:05;;;;;;;19.30;12.00;;;16.60;99.90;;;;;;4987828;28;20555;-73
2022/07/09 00:19:31;;;;;;;16.85;11.63;;;16.60;99.90;;;;;;4970152;28;20053;-73
2022/07/09 00:21:57;;;;;;;25.95;15.43;;;16.60;99.90;;;;;;4978895;28;20054;-73
2022/07/09 00:24:22;;;;;;;20.75;13.32;;;16.60;99.90;;;;;;4969424;28;20057;-73
2022/07/09 00:26:48;;;;;;;30.27;12.45;;;16.50;99.90;;;;;;4970752;28;20046;-73
2022/07/09 00:29:14;;;;;;;21.45;11.70;;;16.40;99.90;;;;;;4980474;28;20404;-73
2022/07/09 00:31:40;;;;;;;25.23;13.48;;;16.40;99.90;;;;;;4982589;28;20038;-73
2022/07/09 00:34:05;;;;;;;19.08;11.77;;;16.30;99.90;;;;;;4969364;28;20401;-73
2022/07/09 00:36:31;;;;;;;30.58;12.85;;;16.40;99.90;;;;;;4978606;28;20138;-73
2022/07/09 00:38:57;;;;;;;28.23;14.88;;;16.30;99.90;;;;;;4966062;28;20117;-73
2022/07/09 00:41:22;;;;;;;23.50;12.77;;;16.30;99.90;;;;;;4952030;28;20593;-73
2022/07/09 00:43:49;;;;;;;20.25;11.88;;;16.30;99.90;;;;;;4945999;28;20513;-73
2022/07/09 00:46:16;;;;;;;21.50;14.98;;;16.30;99.90;;;;;;4950207;28;20039;-73
2022/07/09 00:48:44;;;;;;;15.80;11.05;;;16.30;99.90;;;;;;4967150;28;20161;-73
2022/07/09 00:51:12;;;;;;;21.08;13.45;;;16.20;99.90;;;;;;4968674;28;20183;-73
2022/07/09 00:53:38;;;;;;;24.08;12.52;;;16.20;99.90;;;;;;4950296;28;20122;-73
2022/07/09 00:56:05;;;;;;;27.25;13.90;;;16.20;99.90;;;;;;4959640;28;20134;-72
2022/07/09 00:58:31;;;;;;;20.95;14.27;;;16.20;99.90;;;;;;4950486;28;20419;-72
2022/07/09 01:00:58;;;;;;;18.92;10.40;;;16.20;99.90;;;;;;4951106;28;20125;-72
2022/07/09 01:03:23;;;;;;;18.00;10.88;;;16.20;99.90;;;;;;4952836;28;20054;-72
2022/07/09 01:05:49;;;;;;;14.65;10.73;;;16.20;99.90;;;;;;4950731;28;20053;-73
2022/07/09 01:08:15;;;;;;;25.92;14.63;;;16.20;99.90;;;;;;4951236;28;20051;-73
2022/07/09 01:10:41;;;;;;;15.15;12.10;;;16.10;99.90;;;;;;4950583;28;20050;-73
2022/07/09 01:13:07;;;;;;;32.58;14.52;;;16.10;99.90;;;;;;4966658;28;20090;-73
2022/07/09 01:15:33;;;;;;;17.52;11.27;;;16.10;99.90;;;;;;4951473;28;20047;-73
2022/07/09 01:17:59;;;;;;;29.65;14.70;;;16.10;99.90;;;;;;4968245;28;20133;-73
2022/07/09 01:20:26;;;;;;;22.15;14.52;;;16.20;99.90;;;;;;4967618;28;22780;-73
2022/07/09 01:22:52;;;;;;;17.25;12.23;;;16.10;99.90;;;;;;4966820;28;20054;-73
2022/07/09 01:25:19;;;;;;;19.92;13.68;;;16.10;99.90;;;;;;4967275;28;20058;-73
2022/07/09 01:27:45;;;;;;;21.88;12.63;;;16.00;99.90;;;;;;4968378;28;20051;-73
2022/07/09 01:30:22;;;;;;;26.20;11.75;;;16.00;99.90;;;;;;4950299;28;20078;-73
2022/07/09 01:32:48;;;;;;;29.63;16.23;;;16.00;99.90;;;;;;4950459;28;20059;-73
2022/07/09 01:35:16;;;;;;;27.02;14.35;;;16.00;99.90;;;;;;4950822;28;20467;-73
2022/07/09 01:37:42;;;;;;;25.58;15.65;;;16.00;99.90;;;;;;4989114;28;20050;-73
2022/07/09 01:40:08;;;;;;;29.92;13.85;;;16.00;99.90;;;;;;4986514;28;20415;-73
2022/07/09 01:42:34;;;;;;;22.52;15.10;;;16.00;99.90;;;;;;4970875;28;20417;-73
2022/07/09 01:44:59;;;;;;;25.48;15.13;;;16.00;99.90;;;;;;4969819;28;20050;-73
2022/07/09 01:47:25;;;;;;;22.15;16.33;;;15.90;99.90;;;;;;4977128;28;20418;-73
2022/07/09 01:49:51;;;;;;;28.83;14.40;;;15.90;99.90;;;;;;4979742;28;20042;-73
2022/07/09 01:52:16;;;;;;;29.90;17.15;;;16.00;99.90;;;;;;4986450;28;20165;-73
2022/07/09 01:54:42;;;;;;;29.90;15.50;;;16.00;99.90;;;;;;4986162;28;20069;-73
2022/07/09 01:57:07;;;;;;;28.85;15.85;;;16.00;99.90;;;;;;4987231;28;20050;-73
2022/07/09 01:59:33;;;;;;;25.23;16.27;;;16.00;99.90;;;;;;4972560;28;20400;-73
2022/07/09 02:02:01;;;;;;;41.97;16.88;;;16.00;99.90;;;;;;4989764;28;20108;-73
2022/07/09 02:04:26;;;;;;;28.98;19.00;;;16.00;99.90;;;;;;4989786;28;20054;-73
2022/07/09 02:06:56;;;;;;;42.90;19.50;;;16.00;99.90;;;;;;4975355;28;20065;-73
2022/07/09 02:09:21;;;;;;;35.13;18.63;;;16.00;99.90;;;;;;4987472;28;20057;-73
2022/07/09 02:11:48;;;;;;;29.90;19.35;;;16.00;99.90;;;;;;4984409;28;20079;-73
2022/07/09 02:14:14;;;;;;;28.33;16.33;;;16.00;99.90;;;;;;4973075;28;20105;-73
2022/07/09 02:16:39;;;;;;;31.08;18.65;;;16.00;99.90;;;;;;4971403;28;20046;-73
2022/07/09 02:19:06;;;;;;;28.30;16.50;;;16.10;99.90;;;;;;4986849;28;20050;-73
2022/07/09 02:21:33;;;;;;;31.63;20.35;;;16.10;99.90;;;;;;4972682;28;20452;-73
2022/07/09 02:23:58;;;;;;;32.90;20.05;;;16.10;99.90;;;;;;4973086;28;20081;-73
2022/07/09 02:26:29;;;;;;;30.25;19.15;;;16.10;99.90;;;;;;4974742;28;20093;-73
2022/07/09 02:28:58;;;;;;;27.17;17.70;;;16.10;99.90;;;;;;4988487;28;20508;-73
2022/07/09 02:31:25;;;;;;;40.22;19.42;;;16.10;99.90;;;;;;4973595;28;20046;-74
2022/07/09 02:33:51;;;;;;;35.10;18.98;;;16.10;99.90;;;;;;4980668;28;20586;-73
2022/07/09 02:36:16;;;;;;;43.78;20.77;;;16.10;99.90;;;;;;4985911;28;20133;-73
2022/07/09 02:38:42;;;;;;;37.42;19.52;;;16.10;99.90;;;;;;4970756;28;20488;-73
2022/07/09 02:41:07;;;;;;;44.97;20.45;;;16.10;99.90;;;;;;4989230;28;20046;-72
2022/07/09 02:43:33;;;;;;;31.30;18.85;;;16.10;99.90;;;;;;4971988;28;20046;-72
2022/07/09 02:45:59;;;;;;;37.88;21.58;;;16.10;99.90;;;;;;4989836;28;20149;-72
2022/07/09 02:48:25;;;;;;;35.85;19.30;;;16.10;99.90;;;;;;4981794;28;20105;-72
2022/07/09 02:50:52;;;;;;;28.10;17.30;;;16.10;99.90;;;;;;4987190;28;20042;-72
2022/07/09 02:53:18;;;;;;;33.80;17.83;;;16.10;99.90;;;;;;4972366;28;20504;-72
2022/07/09 02:55:45;;;;;;;33.50;20.88;;;16.00;99.90;;;;;;4988122;28;20125;-73
2022/07/09 02:58:11;;;;;;;31.40;19.83;;;16.00;99.90;;;;;;4987702;28;20038;-73
2022/07/09 03:00:39;;;;;;;34.33;21.17;;;16.00;99.90;;;;;;4988202;28;20054;-73
2022/07/09 03:03:05;;;;;;;41.60;20.35;;;16.00;99.90;;;;;;4971733;28;20038;-73
2022/07/09 03:05:31;;;;;;;42.72;18.33;;;16.00;99.90;;;;;;4989336;28;20105;-73
2022/07/09 03:07:57;;;;;;;48.47;23.30;;;16.00;99.90;;;;;;4971725;28;20137;-73
2022/07/09 03:10:22;;;;;;;47.40;19.40;;;16.10;99.90;;;;;;4970783;28;20082;-73
2022/07/09 03:12:48;;;;;;;33.83;19.73;;;16.00;99.90;;;;;;4971331;28;20129;-73
2022/07/09 03:15:16;;;;;;;49.05;21.10;;;16.00;99.90;;;;;;4971258;28;20055;-73
2022/07/09 03:17:42;;;;;;;33.15;19.67;;;16.00;99.90;;;;;;4968707;28;20065;-73
2022/07/09 03:20:09;;;;;;;35.10;20.83;;;16.00;99.90;;;;;;4965423;28;20050;-73
2022/07/09 03:22:35;;;;;;;34.10;17.25;;;16.10;99.90;;;;;;4971890;28;20078;-73
2022/07/09 03:25:02;;;;;;;42.22;19.92;;;16.00;99.90;;;;;;4981741;28;20447;-73
2022/07/09 03:27:28;;;;;;;34.47;18.42;;;16.10;99.90;;;;;;4985147;28;20058;-73
2022/07/09 03:29:54;;;;;;;33.63;17.10;;;16.10;99.90;;;;;;4972075;28;20674;-73
2022/07/09 03:32:21;;;;;;;35.75;17.98;;;16.10;99.90;;;;;;4971775;28;20121;-73
2022/07/09 03:34:47;;;;;;;29.83;18.48;;;16.10;99.90;;;;;;4971033;28;20066;-73
2022/07/09 03:37:14;;;;;;;32.03;16.40;;;16.10;99.90;;;;;;4987942;28;20054;-73
2022/07/09 03:39:40;;;;;;;34.38;17.05;;;16.10;99.90;;;;;;4972644;28;20061;-73
2022/07/09 03:42:06;;;;;;;44.70;16.67;;;16.00;99.90;;;;;;4984660;28;20042;-73
2022/07/09 03:44:35;;;;;;;39.10;17.60;;;16.10;99.90;;;;;;4970779;28;20503;-73
2022/07/09 03:47:01;;;;;;;34.47;17.30;;;16.00;99.90;;;;;;4972033;28;20046;-73
2022/07/09 03:49:27;;;;;;;28.73;17.00;;;16.00;99.90;;;;;;4984403;28;20435;-73
2022/07/09 03:51:52;;;;;;;31.17;16.92;;;16.00;99.90;;;;;;4984306;28;20057;-72
2022/07/09 03:54:18;;;;;;;30.27;14.98;;;16.00;99.90;;;;;;4988369;28;20046;-73
2022/07/09 03:56:44;;;;;;;28.83;17.40;;;16.00;99.90;;;;;;4968193;28;20177;-73
2022/07/09 03:59:10;;;;;;;30.40;14.45;;;16.00;99.90;;;;;;4986858;28;20423;-73
2022/07/09 04:01:36;;;;;;;32.90;15.10;;;16.00;99.90;;;;;;4970752;28;20039;-72
2022/07/09 04:04:01;;;;;;;24.63;14.27;;;16.00;99.90;;;;;;4986913;28;20412;-73
2022/07/09 04:06:27;;;;;;;25.23;15.77;;;16.00;99.90;;;;;;4988623;28;20694;-73
2022/07/09 04:08:53;;;;;;;28.67;14.48;;;15.90;99.90;;;;;;4985199;28;20042;-73
2022/07/09 04:11:18;;;;;;;24.77;14.95;;;16.00;99.90;;;;;;4966310;28;20046;-73
2022/07/09 04:13:44;;;;;;;36.40;15.00;;;16.00;99.90;;;;;;4970778;28;20081;-73
2022/07/09 04:16:11;;;;;;;28.50;15.25;;;16.00;99.90;;;;;;4988484;28;20050;-73
2022/07/09 04:18:37;;;;;;;32.63;15.65;;;16.00;99.90;;;;;;4988136;28;20183;-73
2022/07/09 04:21:02;;;;;;;21.17;13.57;;;16.00;99.90;;;;;;4976597;28;20050;-73
2022/07/09 04:23:28;;;;;;;27.77;14.43;;;16.00;99.90;;;;;;4962724;28;20050;-72
2022/07/09 04:25:54;;;;;;;32.15;14.70;;;16.00;99.90;;;;;;4979023;28;20054;-72
2022/07/09 04:28:20;;;;;;;29.02;15.45;;;16.00;99.90;;;;;;4984829;28;20050;-71
2022/07/09 04:30:46;;;;;;;24.42;14.40;;;16.00;99.90;;;;;;4970405;28;20046;-71
2022/07/09 04:33:12;;;;;;;25.85;14.30;;;16.00;99.90;;;;;;4988514;28;20050;-71
2022/07/09 04:35:38;;;;;;;31.73;14.13;;;16.00;99.90;;;;;;4990214;28;20060;-71
2022/07/09 04:38:04;;;;;;;24.00;13.02;;;16.10;99.90;;;;;;4965473;28;20108;-71
2022/07/09 04:40:30;;;;;;;26.35;13.32;;;16.10;99.90;;;;;;4997313;28;20054;-71
2022/07/09 04:42:56;;;;;;;23.58;14.57;;;16.10;99.90;;;;;;4985348;28;20049;-71
2022/07/09 04:45:22;;;;;;;28.77;14.02;;;16.10;99.90;;;;;;4970016;28;20060;-71
2022/07/09 04:47:48;;;;;;;26.80;13.63;;;16.20;99.90;;;;;;4971415;28;20049;-72
2022/07/09 04:50:13;;;;;;;36.10;12.88;;;16.10;99.90;;;;;;4987473;28;20054;-71
2022/07/09 04:52:40;;;;;;;20.65;12.38;;;16.20;99.90;;;;;;4987211;28;20051;-71
2022/07/09 04:55:07;;;;;;;24.30;10.88;;;16.20;99.90;;;;;;4972353;28;20130;-71
2022/07/09 04:57:33;;;;;;;19.92;10.90;;;16.20;99.90;;;;;;4983992;28;20054;-71
2022/07/09 04:59:59;;;;;;;18.38;11.15;;;16.20;99.90;;;;;;4965589;28;20042;-72
2022/07/09 05:02:26;;;;;;;23.13;11.45;;;16.20;99.90;;;;;;4970067;28;20487;-72
2022/07/09 05:04:51;;;;;;;32.90;11.55;;;16.30;99.90;;;;;;4985080;28;20517;-72
2022/07/09 05:07:17;;;;;;;22.38;11.82;;;16.30;99.90;;;;;;4952096;28;20166;-72
2022/07/09 05:09:43;;;;;;;19.20;11.18;;;16.40;99.90;;;;;;4964063;28;20042;-72
2022/07/09 05:12:10;;;;;;;48.75;12.85;;;16.40;99.90;;;;;;4970414;28;20063;-71
2022/07/09 05:14:37;;;;;;;26.35;14.65;;;16.40;99.90;;;;;;4987652;28;20546;-71
2022/07/09 05:17:04;;;;;;;25.35;13.57;;;16.40;99.90;;;;;;4985827;28;20068;-72
2022/07/09 05:19:30;;;;;;;23.92;12.45;;;16.50;99.90;;;;;;4984147;28;20182;-73
2022/07/09 05:21:56;;;;;;;25.65;13.25;;;16.50;99.90;;;;;;4985519;28;20161;-72
2022/07/09 05:24:22;;;;;;;20.00;12.57;;;16.50;99.90;;;;;;4984527;28;20054;-72
2022/07/09 05:26:48;;;;;;;29.38;12.95;;;16.60;99.90;;;;;;4988039;28;20054;-72
2022/07/09 05:29:14;;;;;;;22.50;13.57;;;16.60;99.90;;;;;;4987371;28;20089;-72
2022/07/09 05:31:40;;;;;;;36.05;16.65;;;16.60;99.90;;;;;;4987749;28;20038;-73
2022/07/09 05:34:07;;;;;;;24.98;13.52;;;16.60;99.90;;;;;;4972374;28;20392;-72
2022/07/09 05:36:34;;;;;;;25.40;14.90;;;16.70;99.90;;;;;;4969932;28;20526;-72
2022/07/09 05:39:01;;;;;;;22.95;13.60;;;16.70;99.90;;;;;;4985326;28;20361;-72
2022/07/09 05:41:27;;;;;;;29.00;16.63;;;16.70;99.90;;;;;;4970265;28;20050;-72
2022/07/09 05:43:54;;;;;;;27.52;13.00;;;16.80;99.90;;;;;;4973619;28;20499;-72
2022/07/09 05:46:20;;;;;;;30.40;14.77;;;16.90;99.90;;;;;;4980719;28;20059;-72
2022/07/09 05:48:46;;;;;;;32.47;14.70;;;16.90;99.90;;;;;;4991065;28;20050;-72
2022/07/09 05:51:12;;;;;;;23.20;11.55;;;17.00;99.90;;;;;;4991340;28;20049;-73
2022/07/09 05:53:37;;;;;;;25.40;11.63;;;17.10;99.90;;;;;;4981176;28;20058;-72
2022/07/09 05:56:04;;;;;;;17.70;11.02;;;17.10;99.90;;;;;;4992927;28;20113;-72
2022/07/09 05:58:29;;;;;;;22.00;11.10;;;17.20;99.90;;;;;;4969359;28;20042;-72
2022/07/09 06:00:55;;;;;;;22.85;11.95;;;17.20;99.90;;;;;;4987899;28;20038;-72
2022/07/09 06:03:21;;;;;;;24.13;11.05;;;17.20;99.90;;;;;;4991219;28;20145;-72
2022/07/09 06:05:46;;;;;;;22.08;11.32;;;17.30;99.90;;;;;;4973292;28;20596;-72
2022/07/09 06:08:12;;;;;;;18.67;10.77;;;17.30;99.90;;;;;;4972781;28;20050;-73
2022/07/09 06:10:38;;;;;;;18.48;10.27;;;17.30;99.90;;;;;;4977153;28;20101;-73
2022/07/09 06:13:03;;;;;;;15.82;10.05;;;17.40;99.90;;;;;;4996301;28;20129;-74
2022/07/09 06:15:29;;;;;;;18.60;9.57;;;17.40;99.90;;;;;;4979489;28;20081;-73
2022/07/09 06:17:55;;;;;;;13.55;8.48;;;17.40;99.90;;;;;;4983313;28;20051;-72
2022/07/09 06:20:20;;;;;;;21.13;9.40;;;17.40;99.90;;;;;;4988300;28;20049;-73
2022/07/09 06:22:46;;;;;;;18.42;9.65;;;17.50;99.90;;;;;;4990068;28;20129;-73
2022/07/09 06:25:13;;;;;;;15.13;8.63;;;17.50;99.90;;;;;;4990646;28;20038;-73
2022/07/09 06:27:41;;;;;;;30.77;11.77;;;17.50;99.90;;;;;;4986209;28;20050;-73
2022/07/09 06:30:07;;;;;;;19.98;10.93;;;17.50;99.90;;;;;;4990076;28;20049;-73
2022/07/09 06:32:32;;;;;;;12.48;8.50;;;17.60;99.90;;;;;;4990343;28;20380;-73
2022/07/09 06:34:58;;;;;;;14.40;9.60;;;17.50;99.90;;;;;;4974399;28;20086;-73
2022/07/09 06:37:24;;;;;;;19.13;9.82;;;17.60;99.90;;;;;;4978236;28;20054;-72
2022/07/09 06:39:55;;;;;;;17.35;9.25;;;17.60;99.90;;;;;;4958444;28;20050;-73
2022/07/09 06:42:21;;;;;;;22.42;10.60;;;17.70;99.90;;;;;;4973843;28;20842;-73
2022/07/09 06:44:47;;;;;;;18.92;9.57;;;17.70;99.90;;;;;;4970919;28;20105;-72
2022/07/09 06:47:13;;;;;;;14.85;9.40;;;17.70;99.90;;;;;;4956206;28;20043;-72
2022/07/09 06:49:39;;;;;;;14.15;8.43;;;17.70;99.90;;;;;;4948635;28;20054;-73
2022/07/09 06:52:05;;;;;;;13.85;8.82;;;17.70;99.90;;;;;;4967751;28;20050;-73
2022/07/09 06:54:30;;;;;;;20.88;9.77;;;17.70;99.90;;;;;;4971169;28;20043;-73
2022/07/09 06:56:56;;;;;;;19.35;9.45;;;17.80;99.90;;;;;;4958799;28;20101;-73
2022/07/09 06:59:25;;;;;;;14.63;8.68;;;17.80;99.90;;;;;;4967844;28;20042;-72
2022/07/09 07:01:51;;;;;;;27.05;10.68;;;17.90;99.90;;;;;;4979488;28;20138;-72
2022/07/09 07:04:17;;;;;;;12.68;8.63;;;18.00;99.90;;;;;;4973442;28;20461;-73
2022/07/09 07:06:43;;;;;;;12.07;8.43;;;18.00;99.90;;;;;;4971095;28;20094;-72
2022/07/09 07:09:10;;;;;;;18.92;9.15;;;18.00;99.90;;;;;;4967012;28;20054;-73
2022/07/09 07:11:36;;;;;;;13.73;7.68;;;18.00;99.90;;;;;;4969487;28;20051;-73
2022/07/09 07:14:02;;;;;;;16.35;7.97;;;18.10;99.90;;;;;;4970764;28;20046;-73
2022/07/09 07:16:27;;;;;;;16.20;9.18;;;18.10;99.90;;;;;;4949531;28;20049;-73
2022/07/09 07:18:53;;;;;;;16.88;8.90;;;18.10;99.90;;;;;;4968476;28;20069;-72
2022/07/09 07:21:19;;;;;;;12.55;9.55;;;18.20;99.90;;;;;;4952787;28;20047;-73
2022/07/09 07:23:44;;;;;;;21.92;7.38;;;18.20;99.90;;;;;;4952859;28;20047;-73
2022/07/09 07:26:10;;;;;;;14.65;7.50;;;18.20;99.90;;;;;;4970943;28;20101;-73
2022/07/09 07:28:36;;;;;;;15.45;7.50;;;18.20;99.90;;;;;;4964765;28;20050;-73
2022/07/09 07:31:02;;;;;;;23.95;8.98;;;18.20;99.90;;;;;;4969144;28;20074;-73
2022/07/09 07:33:27;;;;;;;13.23;7.10;;;18.30;99.90;;;;;;4970098;28;20697;-73
2022/07/09 07:35:53;;;;;;;16.85;8.63;;;18.30;99.90;;;;;;4953590;28;20054;-74
2022/07/09 07:38:19;;;;;;;14.68;7.53;;;18.30;99.90;;;;;;4969916;28;20050;-73
2022/07/09 07:40:44;;;;;;;10.35;7.35;;;18.30;99.90;;;;;;4981005;28;20047;-73
2022/07/09 07:43:13;;;;;;;11.48;6.60;;;18.40;99.90;;;;;;4966976;28;20052;-74
2022/07/09 07:45:39;;;;;;;9.15;6.13;;;18.40;99.90;;;;;;4986210;28;20100;-77
2022/07/09 07:48:05;;;;;;;8.45;6.40;;;18.40;99.90;;;;;;4972205;28;20050;-72
2022/07/09 07:50:32;;;;;;;10.70;6.57;;;18.50;99.90;;;;;;4987818;28;20034;-75
2022/07/09 07:52:58;;;;;;;14.48;6.25;;;18.60;99.90;;;;;;4973812;28;20118;-74
2022/07/09 07:55:23;;;;;;;11.02;5.90;;;18.70;99.90;;;;;;4965471;28;20543;-73
2022/07/09 07:57:49;;;;;;;14.00;6.05;;;18.90;99.90;;;;;;4968509;28;20158;-73
2022/07/09 08:00:16;;;;;;;11.48;6.15;;;19.10;99.90;;;;;;4961984;28;20129;-74
2022/07/09 08:02:41;;;;;;;11.25;6.03;;;19.30;99.90;;;;;;4970701;28;20566;-73
2022/07/09 08:05:07;;;;;;;9.55;5.88;;;19.40;99.90;;;;;;4983241;28;20047;-74
2022/07/09 08:07:33;;;;;;;12.93;6.55;;;19.60;99.90;;;;;;4970472;28;20072;-73
2022/07/09 08:09:59;;;;;;;10.32;6.40;;;19.60;99.90;;;;;;4970544;28;21178;-73
2022/07/09 08:12:24;;;;;;;7.57;5.57;;;19.60;99.90;;;;;;4970638;28;20141;-73
2022/07/09 08:14:50;;;;;;;30.65;6.65;;;19.60;99.90;;;;;;4968274;28;20152;-73
2022/07/09 08:17:16;;;;;;;38.72;6.35;;;19.70;99.90;;;;;;4969903;28;20046;-74
2022/07/09 08:19:42;;;;;;;20.65;6.40;;;19.70;99.90;;;;;;4971140;28;20042;-73
2022/07/09 08:22:07;;;;;;;16.92;6.40;;;19.80;99.90;;;;;;4985935;28;20043;-73
2022/07/09 08:24:33;;;;;;;6.00;4.45;;;20.00;99.90;;;;;;4988231;28;20093;-73
2022/07/09 08:26:59;;;;;;;12.43;5.25;;;20.00;99.90;;;;;;4987948;28;20050;-73
2022/07/09 08:29:25;;;;;;;13.65;5.78;;;20.10;99.90;;;;;;4966993;28;20039;-73
2022/07/09 08:31:51;;;;;;;9.52;5.40;;;20.10;99.90;;;;;;4988060;28;20046;-74
2022/07/09 08:34:17;;;;;;;30.35;5.68;;;20.10;99.90;;;;;;4967692;28;20047;-73
2022/07/09 08:36:44;;;;;;;7.15;5.13;;;20.30;99.90;;;;;;4974513;28;20066;-74
2022/07/09 08:39:10;;;;;;;7.55;4.82;;;20.40;99.90;;;;;;4973511;28;20062;-73
2022/07/09 08:41:35;;;;;;;11.77;5.97;;;20.40;99.90;;;;;;4973496;28;20051;-73
2022/07/09 08:44:03;;;;;;;8.20;5.95;;;20.40;99.90;;;;;;4968256;28;20049;-73
2022/07/09 08:46:29;;;;;;;;;;;20.60;99.90;;;;;;4969620;28;20113;-73
2022/07/09 08:48:57;;;;;;;8.63;4.50;;;20.90;99.90;;;;;;4948133;28;20346;-73
2022/07/09 08:51:23;;;;;;;6.90;4.15;;;21.10;99.90;;;;;;4948674;28;20476;-73
2022/07/09 08:53:49;;;;;;;10.88;4.80;;;21.50;99.90;;;;;;4963001;28;20192;-73
2022/07/09 08:56:15;;;;;;;6.20;3.90;;;21.80;99.90;;;;;;4967028;28;20094;-74
2022/07/09 08:58:41;;;;;;;4.22;3.83;;;22.20;99.90;;;;;;4966097;28;20086;-74
2022/07/09 09:01:08;;;;;;;11.32;3.70;;;22.10;99.90;;;;;;4966400;28;20039;-74
2022/07/09 09:03:35;;;;;;;11.10;3.92;;;22.20;99.90;;;;;;4967954;28;20110;-73
2022/07/09 09:06:06;;;;;;;33.63;6.20;;;22.30;99.90;;;;;;4951359;28;20122;-72
2022/07/09 09:08:36;;;;;;;11.25;4.43;;;22.40;99.90;;;;;;4949401;28;20075;-74
2022/07/09 09:11:06;;;;;;;4.28;3.22;;;22.70;99.90;;;;;;4962079;28;20054;-74
2022/07/09 09:13:46;;;;;;;8.00;3.97;;;22.70;99.90;;;;;;4955435;28;20043;-74
2022/07/09 09:16:13;;;;;;;10.38;4.07;;;22.60;99.90;;;;;;4963261;28;20053;-73
2022/07/09 09:18:43;;;;;;;5.15;4.05;;;22.60;99.90;;;;;;4970057;28;20058;-73
2022/07/09 09:21:11;;;;;;;3.67;3.38;;;22.50;99.90;;;;;;4972930;28;20050;-73
2022/07/09 09:23:47;;;;;;;11.98;3.58;;;22.30;99.90;;;;;;4962863;28;20051;-72
2022/07/09 09:26:15;;;;;;;4.22;3.15;;;22.30;99.90;;;;;;4966852;28;20415;-73
2022/07/09 09:28:54;;;;;;;3.55;3.25;;;22.10;99.90;;;;;;4955581;28;20054;-73
2022/07/09 09:31:35;;;;;;;7.03;4.03;;;22.20;99.90;;;;;;4970808;28;20057;-72
2022/07/09 09:34:15;;;;;;;5.78;3.72;;;22.50;99.90;;;;;;4970728;28;20091;-74
2022/07/09 09:36:50;;;;;;;8.55;3.25;;;22.60;99.90;;;;;;4977578;28;20065;-74
2022/07/09 09:39:29;;;;;;;4.53;3.55;;;22.50;99.90;;;;;;4947893;28;20045;-73
2022/07/09 09:41:57;;;;;;;10.77;4.30;;;22.30;99.90;;;;;;4983581;28;20526;-74
2022/07/09 09:44:26;;;;;;;4.65;3.80;;;22.10;99.90;;;;;;4966093;28;20054;-74
2022/07/09 09:46:52;;;;;;;5.45;3.25;;;22.10;99.90;;;;;;4974468;28;20053;-74
2022/07/09 09:49:19;;;;;;;9.40;3.92;;;22.20;99.90;;;;;;4991912;28;20064;-74
2022/07/09 09:51:49;;;;;;;5.78;3.67;;;22.30;99.90;;;;;;4991780;28;20042;-73
2022/07/09 09:54:16;;;;;;;10.55;4.22;;;22.50;99.90;;;;;;4990710;28;20046;-74
2022/07/09 09:56:43;;;;;;;5.13;3.63;;;22.50;99.90;;;;;;4992258;28;20043;-74
2022/07/09 09:59:10;;;;;;;4.32;3.70;;;22.70;99.90;;;;;;4988256;28;20046;-73
2022/07/09 10:01:36;;;;;;;6.07;3.70;;;23.10;99.90;;;;;;4987361;28;20043;-74
2022/07/09 10:04:02;;;;;;;7.43;3.30;;;23.10;99.90;;;;;;4989892;28;20046;-74
2022/07/09 10:06:28;;;;;;;5.35;3.60;;;23.00;99.90;;;;;;4971948;28;20471;-73
2022/07/09 10:08:55;;;;;;;6.35;3.95;;;22.80;99.90;;;;;;4985068;28;20125;-73
2022/07/09 10:11:22;;;;;;;4.60;3.35;;;22.70;99.90;;;;;;4990314;28;20050;-72
2022/07/09 10:13:53;;;;;;;7.70;2.92;;;22.50;99.90;;;;;;4985585;28;20050;-70
2022/07/09 10:16:18;;;;;;;17.92;4.78;;;22.70;99.90;;;;;;4967161;28;20061;-70
2022/07/09 10:18:53;;;;;;;21.20;4.10;;;22.80;99.90;;;;;;4972237;28;20038;-70
2022/07/09 10:21:32;;;;;;;31.50;5.40;;;22.90;99.90;;;;;;4980236;28;20090;-70
2022/07/09 10:23:58;;;;;;;31.85;4.55;;;23.10;99.90;;;;;;4984158;28;20046;-70
2022/07/09 10:26:42;;;;;;;7.45;3.33;;;23.10;99.90;;;;;;4983121;28;20507;-70
2022/07/09 10:29:18;;;;;;;6.15;3.13;;;23.10;99.90;;;;;;4973869;28;20133;-70
2022/07/09 10:31:46;;;;;;;10.13;4.03;;;23.00;99.90;;;;;;4991752;28;20042;-70
2022/07/09 10:34:39;;;;;;;6.57;3.97;;;22.70;99.90;;;;;;4990659;28;20050;-71
2022/07/09 10:37:05;;;;;;;6.03;4.18;;;22.60;99.90;;;;;;4966293;28;20049;-70
2022/07/09 10:39:32;;;;;;;6.50;3.60;;;22.80;99.90;;;;;;4968643;28;20058;-70
2022/07/09 10:42:19;;;;;;;7.78;3.90;;;23.00;99.90;;;;;;4970822;28;20047;-70
2022/07/09 10:44:51;;;;;;;7.57;4.30;;;23.30;99.90;;;;;;4966694;28;21301;-70
2022/07/09 10:47:17;;;;;;;8.05;3.72;;;23.80;99.90;;;;;;4964605;28;20042;-71
2022/07/09 10:49:43;;;;;;;4.40;3.63;;;24.20;99.90;;;;;;4965116;28;20412;-71
2022/07/09 10:52:09;;;;;;;10.82;3.28;;;24.30;99.90;;;;;;4968350;28;20050;-70
2022/07/09 10:54:45;;;;;;;4.35;3.58;;;24.40;99.90;;;;;;4968893;28;20042;-70
2022/07/09 10:57:13;;;;;;;7.18;3.47;;;24.40;99.90;;;;;;4970014;28;20047;-70
2022/07/09 10:59:38;;;;;;;6.35;3.38;;;24.30;99.90;;;;;;4971147;28;21219;-70
2022/07/09 11:02:04;;;;;;;8.80;4.03;;;24.40;99.90;;;;;;4969588;28;20058;-68
2022/07/09 11:04:34;;;;;;;4.30;2.80;;;24.30;99.90;;;;;;4969444;28;20070;-70
2022/07/09 11:07:01;;;;;;;5.55;3.00;;;24.40;99.90;;;;;;4971776;28;20043;-70
2022/07/09 11:09:28;;;;;;;9.05;3.75;;;24.50;99.90;;;;;;4970454;28;20047;-70
2022/07/09 11:11:53;;;;;;;9.18;3.35;;;24.60;99.90;;;;;;4966656;28;20074;-70
2022/07/09 11:14:19;;;;;;;6.78;3.53;;;24.50;99.90;;;;;;4968896;28;20082;-70
2022/07/09 11:16:56;;;;;;;8.02;4.03;;;24.60;99.90;;;;;;4971257;28;20126;-69
2022/07/09 11:19:22;;;;;;;14.32;4.18;;;24.60;99.90;;;;;;4985778;28;20043;-71
2022/07/09 11:21:49;;;;;;;11.93;4.50;;;24.30;99.90;;;;;;4970735;28;20138;-70
2022/07/09 11:24:18;;;;;;;6.68;4.30;;;24.10;99.90;;;;;;4970684;28;20054;-70
2022/07/09 11:26:45;;;;;;;9.20;4.32;;;23.80;99.90;;;;;;4969544;28;20047;-70
2022/07/09 11:29:11;;;;;;;8.70;4.40;;;23.40;99.90;;;;;;4977403;28;20063;-70
2022/07/09 11:31:45;;;;;;;6.95;4.10;;;23.20;99.90;;;;;;4969551;28;20504;-70
2022/07/09 11:34:12;;;;;;;14.05;5.13;;;23.20;99.90;;;;;;4968133;28;20043;-70
2022/07/09 11:36:46;;;;;;;19.02;4.28;;;23.30;99.90;;;;;;4975469;28;20062;-70
2022/07/09 11:39:39;;;;;;;12.98;5.25;;;23.20;99.90;;;;;;4989448;28;20066;-70
2022/07/09 11:42:04;;;;;;;10.38;4.40;;;23.20;99.90;;;;;;4986930;28;20658;-69
2022/07/09 11:44:34;;;;;;;9.20;4.40;;;23.30;99.90;;;;;;4972097;28;20046;-69
2022/07/09 11:47:00;;;;;;;7.85;3.83;;;23.50;99.90;;;;;;4990567;28;20061;-70
2022/07/09 11:49:33;;;;;;;9.95;4.43;;;23.40;99.90;;;;;;4989775;28;21268;-70
2022/07/09 11:51:58;;;;;;;7.95;4.10;;;23.30;99.90;;;;;;4973285;28;20038;-69
2022/07/09 11:54:29;;;;;;;8.23;4.68;;;23.10;99.90;;;;;;4970966;28;20057;-70
2022/07/09 11:56:54;;;;;;;8.95;4.05;;;23.00;99.90;;;;;;4970365;28;20129;-71
2022/07/09 11:59:34;;;;;;;9.52;4.00;;;23.00;99.90;;;;;;4971898;28;20681;-70
2022/07/09 12:02:02;;;;;;;6.32;3.80;;;23.20;99.90;;;;;;4990092;28;20046;-70
2022/07/09 12:04:32;;;;;;;11.80;3.80;;;23.20;99.90;;;;;;4988007;28;20522;-69
2022/07/09 12:06:58;;;;;;;10.65;4.30;;;23.20;99.90;;;;;;4989402;28;20054;-69
2022/07/09 12:09:29;;;;;;;6.53;3.65;;;23.30;99.90;;;;;;4989611;28;20054;-69
2022/07/09 12:11:55;;;;;;;13.50;4.82;;;23.50;99.90;;;;;;4959863;28;20042;-69
2022/07/09 12:14:21;;;;;;;12.30;3.72;;;23.40;99.90;;;;;;4989990;28;20046;-70
2022/07/09 12:16:46;;;;;;;15.40;5.07;;;23.10;99.90;;;;;;4971670;28;20619;-69
2022/07/09 12:19:12;;;;;;;12.80;4.65;;;23.10;99.90;;;;;;4987512;28;20078;-70
2022/07/09 12:21:37;;;;;;;7.55;3.40;;;23.10;99.90;;;;;;4971847;28;20491;-69
2022/07/09 12:24:03;;;;;;;10.85;3.25;;;23.10;99.90;;;;;;4989152;28;20042;-70
2022/07/09 12:26:30;;;;;;;10.32;3.22;;;23.30;99.90;;;;;;4989242;28;20079;-70
2022/07/09 12:28:56;;;;;;;6.28;2.97;;;23.30;99.90;;;;;;4988547;28;20046;-70
2022/07/09 12:31:22;;;;;;;6.00;2.67;;;23.40;99.90;;;;;;4986228;28;20403;-71